Time;durP1;ratioP1;P1;durP2;ratioP2;P2;SDS_P1;SDS_P2;PMS_P1;PMS_P2;Temp;Humidity;BMP_temperature;BMP_pressure;BME280_temperature;BME280_humidity;BME280_pressure;Samples;Min_cycle;Max_cycle;Signal;HPM_P1;HPM_P2
2021/06/17 00:00:41;;;;;;;6.43;5.82;;;;;;;22.30;55.76;98443.63;3589234;40;20048;-57
2021/06/17 00:03:09;;;;;;;7.95;6.20;;;;;;;22.19;56.27;98450.94;3589384;40;20067;-58
2021/06/17 00:05:38;;;;;;;6.47;5.88;;;;;;;22.05;56.61;98437.25;3589163;40;20052;-57
2021/06/17 00:08:07;;;;;;;9.25;6.13;;;;;;;22.09;56.84;98442.91;3588945;40;20085;-57
2021/06/17 00:10:37;;;;;;;7.65;6.47;;;;;;;22.14;56.48;98446.41;3579569;40;20045;-58
2021/06/17 00:13:08;;;;;;;8.82;6.20;;;;;;;22.14;56.04;98442.91;3589245;40;20044;-57
2021/06/17 00:15:38;;;;;;;7.20;6.53;;;;;;;22.14;56.22;98437.53;3589427;40;20048;-58
2021/06/17 00:18:08;;;;;;;7.15;6.47;;;;;;;22.10;56.21;98441.81;3588597;40;20093;-58
2021/06/17 00:20:36;;;;;;;7.05;6.35;;;;;;;22.04;56.61;98438.31;3588944;40;20051;-58
2021/06/17 00:23:05;;;;;;;6.93;6.32;;;;;;;22.04;56.75;98435.63;3589260;40;20111;-58
2021/06/17 00:25:33;;;;;;;9.32;6.82;;;;;;;22.07;56.36;98443.16;3589235;40;20052;-58
2021/06/17 00:28:01;;;;;;;9.18;6.90;;;;;;;22.09;56.39;98441.00;3588981;40;20309;-57
2021/06/17 00:30:29;;;;;;;7.38;6.07;;;;;;;22.04;56.49;98440.22;3589095;40;20438;-58
2021/06/17 00:32:59;;;;;;;8.30;7.20;;;;;;;22.05;56.65;98436.47;3579801;40;20073;-58
2021/06/17 00:35:28;;;;;;;7.07;6.38;;;;;;;21.98;56.57;98437.56;3588888;40;20044;-58
2021/06/17 00:37:57;;;;;;;7.43;6.72;;;;;;;21.86;57.04;98426.31;3588520;40;20045;-57
2021/06/17 00:40:25;;;;;;;9.50;6.85;;;;;;;21.83;57.33;98423.34;3579514;40;20048;-57
2021/06/17 00:42:54;;;;;;;6.82;6.22;;;;;;;21.80;56.98;98426.59;3588954;40;20045;-57
2021/06/17 00:45:25;;;;;;;6.38;5.88;;;;;;;21.79;57.12;98420.41;3588865;40;20051;-57
2021/06/17 00:47:53;;;;;;;7.22;6.50;;;;;;;21.85;56.72;98415.81;3588460;40;20051;-57
2021/06/17 00:50:23;;;;;;;7.63;7.03;;;;;;;21.92;56.82;98409.06;3589168;40;20348;-58
2021/06/17 00:52:51;;;;;;;7.40;6.65;;;;;;;21.92;56.77;98402.84;3589018;40;20100;-58
2021/06/17 00:55:19;;;;;;;7.15;6.53;;;;;;;21.91;56.76;98399.38;3588781;40;20118;-57
2021/06/17 00:57:47;;;;;;;6.95;6.35;;;;;;;21.83;56.70;98397.25;3588593;40;20084;-58
2021/06/17 01:00:18;;;;;;;7.38;6.72;;;;;;;21.85;56.42;98388.91;3588672;40;20049;-57
2021/06/17 01:02:45;;;;;;;7.15;6.38;;;;;;;21.85;56.59;98405.88;3589211;40;20080;-57
2021/06/17 01:05:18;;;;;;;8.43;6.47;;;;;;;21.86;56.25;98401.28;3588864;40;20040;-57
2021/06/17 01:08:15;;;;;;;6.70;6.03;;;;;;;21.85;56.48;98399.69;3588759;40;20063;-58
2021/06/17 01:10:52;;;;;;;6.75;6.10;;;;;;;21.89;56.11;98403.44;3588692;40;20048;-58
2021/06/17 01:13:24;;;;;;;6.60;6.00;;;;;;;21.88;56.24;98394.56;3588870;40;20048;-57
2021/06/17 01:16:09;;;;;;;6.93;6.30;;;;;;;21.88;55.96;98388.34;3579281;40;20076;-57
2021/06/17 01:18:40;;;;;;;7.22;6.53;;;;;;;21.89;56.10;98390.78;3588402;40;20047;-58
2021/06/17 01:21:20;;;;;;;6.60;6.10;;;;;;;21.89;56.05;98393.47;3588877;40;20335;-57
2021/06/17 01:24:04;;;;;;;7.05;6.22;;;;;;;21.92;56.29;98394.78;3589158;40;20080;-58
2021/06/17 01:26:42;;;;;;;6.57;5.97;;;;;;;21.95;55.63;98397.72;3592585;40;20084;-58
2021/06/17 01:29:18;;;;;;;7.28;6.55;;;;;;;21.98;55.74;98391.81;3592308;40;20361;-57
2021/06/17 01:31:47;;;;;;;6.53;5.90;;;;;;;21.96;55.84;98393.16;3592543;40;20048;-58
2021/06/17 01:34:17;;;;;;;7.13;6.43;;;;;;;21.94;56.11;98390.75;3588795;40;20056;-59
2021/06/17 01:36:49;;;;;;;6.68;6.05;;;;;;;21.91;55.71;98390.50;3589032;40;20397;-59
2021/06/17 01:39:21;;;;;;;9.05;6.40;;;;;;;21.83;55.93;98386.47;3588886;40;20043;-58
2021/06/17 01:41:50;;;;;;;7.53;6.78;;;;;;;21.66;56.22;98400.28;3588980;40;20543;-56
2021/06/17 01:44:22;;;;;;;7.00;6.30;;;;;;;21.51;57.17;98397.63;3589090;40;20047;-58
2021/06/17 01:46:51;;;;;;;7.35;6.75;;;;;;;21.44;56.97;98403.31;3588480;40;20052;-59
2021/06/17 01:49:20;;;;;;;6.57;6.00;;;;;;;21.38;57.55;98400.91;3588429;40;20048;-58
2021/06/17 01:51:50;;;;;;;7.28;6.68;;;;;;;21.33;57.46;98398.22;3588498;40;20063;-56
2021/06/17 01:54:27;;;;;;;7.47;6.88;;;;;;;21.27;57.63;98402.78;3579028;40;20056;-58
2021/06/17 01:56:58;;;;;;;8.60;6.40;;;;;;;21.27;58.08;98408.16;3588319;40;20408;-59
2021/06/17 01:59:31;;;;;;;7.60;6.90;;;;;;;21.27;58.11;98408.16;3588594;40;20357;-58
2021/06/17 02:02:01;;;;;;;9.35;7.65;;;;;;;21.30;58.03;98412.97;3588477;40;20044;-58
2021/06/17 02:04:30;;;;;;;7.63;6.60;;;;;;;21.18;58.33;98417.84;3588539;40;20072;-57
2021/06/17 02:07:00;;;;;;;7.53;6.65;;;;;;;21.24;58.57;98420.25;3579005;40;20061;-58
2021/06/17 02:09:29;;;;;;;10.05;7.13;;;;;;;21.26;58.28;98415.41;3588781;40;20056;-57
2021/06/17 02:11:58;;;;;;;7.30;6.60;;;;;;;21.30;58.29;98421.03;3590685;40;20106;-58
2021/06/17 02:14:29;;;;;;;7.80;6.90;;;;;;;21.37;57.84;98418.91;3591382;40;20318;-58
2021/06/17 02:17:00;;;;;;;8.85;6.70;;;;;;;21.28;58.38;98415.94;3579538;40;20394;-58
2021/06/17 02:19:32;;;;;;;7.13;6.47;;;;;;;21.23;58.43;98428.59;3588103;40;20049;-59
2021/06/17 02:22:01;;;;;;;7.18;6.30;;;;;;;21.12;58.92;98422.41;3579194;40;20051;-58
2021/06/17 02:24:31;;;;;;;10.38;6.60;;;;;;;21.12;58.60;98427.00;3588427;40;20321;-58
2021/06/17 02:27:05;;;;;;;7.72;6.97;;;;;;;21.12;59.08;98435.06;3587850;40;20056;-57
2021/06/17 02:29:41;;;;;;;7.22;6.53;;;;;;;21.06;59.10;98431.53;3588195;40;20327;-58
2021/06/17 02:32:12;;;;;;;7.80;7.00;;;;;;;20.96;59.42;98434.25;3588174;40;20049;-57
2021/06/17 02:34:42;;;;;;;7.82;7.13;;;;;;;20.91;59.68;98432.38;3588274;40;20052;-56
2021/06/17 02:37:10;;;;;;;7.60;6.90;;;;;;;20.86;59.49;98431.56;3587895;40;20048;-58
2021/06/17 02:39:39;;;;;;;7.75;7.05;;;;;;;20.90;59.93;98432.63;3587963;40;20107;-57
2021/06/17 02:42:08;;;;;;;8.52;7.63;;;;;;;20.91;59.55;98434.25;3587950;40;20056;-58
2021/06/17 02:44:38;;;;;;;7.80;7.00;;;;;;;20.93;59.43;98435.59;3587759;40;20045;-58
2021/06/17 02:47:06;;;;;;;12.48;8.10;;;;;;;20.85;59.60;98436.13;3587690;40;20055;-58
2021/06/17 02:49:34;;;;;;;8.00;7.20;;;;;;;20.74;60.10;98438.00;3628619;22;20056;-65
2021/06/17 02:52:02;;;;;;;7.22;6.63;;;;;;;20.73;59.99;98440.94;3598894;39;20048;-65
2021/06/17 02:54:30;;;;;;;7.72;6.95;;;;;;;20.83;59.98;98440.16;3598523;39;20055;-65
2021/06/17 02:57:22;;;;;;;8.23;7.40;;;;;;;20.86;60.03;98440.44;3598200;39;20293;-65
2021/06/17 03:00:01;;;;;;;8.77;7.93;;;;;;;20.77;60.15;98440.13;3598097;39;20132;-64
2021/06/17 03:02:38;;;;;;;8.15;7.00;;;;;;;20.62;60.39;98442.03;3597254;40;20127;-65
2021/06/17 03:05:12;;;;;;;7.95;7.25;;;;;;;20.64;60.73;98446.03;3598125;39;20047;-65
2021/06/17 03:07:46;;;;;;;9.23;7.93;;;;;;;20.65;60.39;98450.34;3597765;39;20043;-65
2021/06/17 03:10:15;;;;;;;8.70;7.60;;;;;;;20.67;60.50;98453.56;3598130;39;20088;-65
2021/06/17 03:12:46;;;;;;;9.43;7.93;;;;;;;20.69;60.48;98456.78;3596921;40;20056;-65
2021/06/17 03:15:16;;;;;;;8.70;7.80;;;;;;;20.66;60.42;98459.22;3597953;39;20044;-65
2021/06/17 03:17:48;;;;;;;7.65;7.03;;;;;;;20.61;60.42;98469.94;3597583;39;20310;-65
2021/06/17 03:20:18;;;;;;;7.88;7.18;;;;;;;20.45;60.90;98466.38;3597880;39;20052;-65
2021/06/17 03:22:51;;;;;;;7.80;6.97;;;;;;;20.40;61.07;98472.53;3598085;39;20081;-65
2021/06/17 03:25:22;;;;;;;9.50;7.37;;;;;;;20.33;61.13;98473.84;3599410;39;20039;-65
2021/06/17 03:27:52;;;;;;;8.07;7.28;;;;;;;20.24;61.30;98474.38;3599320;39;20470;-65
2021/06/17 03:30:24;;;;;;;8.45;7.45;;;;;;;20.18;61.51;98470.06;3599569;39;20434;-65
2021/06/17 03:32:53;;;;;;;8.48;7.68;;;;;;;20.17;61.93;98473.81;3599699;39;20079;-65
2021/06/17 03:35:23;;;;;;;8.98;8.07;;;;;;;20.20;61.75;98469.78;3599465;39;20047;-64
2021/06/17 03:37:52;;;;;;;8.23;7.47;;;;;;;20.17;62.07;98468.47;3599281;39;20111;-65
2021/06/17 03:40:20;;;;;;;9.68;7.70;;;;;;;20.25;61.53;98475.19;3599711;39;20060;-65
2021/06/17 03:42:51;;;;;;;8.48;7.50;;;;;;;20.25;61.32;98476.00;3599445;39;20047;-65
2021/06/17 03:45:21;;;;;;;7.97;7.28;;;;;;;20.34;61.13;98478.97;3599676;39;20055;-66
2021/06/17 03:47:52;;;;;;;10.32;7.97;;;;;;;20.39;60.81;98486.25;3599115;39;20084;-65
2021/06/17 03:50:23;;;;;;;10.00;8.85;;;;;;;20.40;61.10;98487.84;3599393;39;20047;-65
2021/06/17 03:52:53;;;;;;;16.88;11.52;;;;;;;20.40;60.96;98485.97;3599648;39;20040;-65
2021/06/17 03:55:21;;;;;;;10.95;8.13;;;;;;;20.45;60.74;98485.16;3599186;39;20332;-65
2021/06/17 03:57:51;;;;;;;10.30;8.43;;;;;;;20.40;61.04;98487.84;3599531;39;20040;-66
2021/06/17 04:00:20;;;;;;;12.32;8.30;;;;;;;20.48;60.88;98490.84;3599466;39;20048;-66
2021/06/17 04:02:52;;;;;;;10.85;8.27;;;;;;;20.56;60.96;98483.34;3599547;39;20329;-65
2021/06/17 04:05:20;;;;;;;12.80;8.65;;;;;;;20.70;60.44;98484.47;3599732;39;20088;-66
2021/06/17 04:07:51;;;;;;;9.55;8.48;;;;;;;20.80;59.84;98473.72;3599216;39;20044;-65
2021/06/17 04:10:20;;;;;;;11.35;8.35;;;;;;;20.86;59.61;98478.06;3599271;39;20078;-65
2021/06/17 04:12:50;;;;;;;10.15;8.25;;;;;;;20.90;59.57;98473.75;3599479;39;20085;-65
2021/06/17 04:15:19;;;;;;;11.43;8.43;;;;;;;20.95;59.40;98473.75;3599588;39;20129;-65
2021/06/17 04:17:52;;;;;;;11.68;8.82;;;;;;;21.17;59.06;98469.97;3599011;39;20391;-65
2021/06/17 04:20:22;;;;;;;;;;;;;;;21.24;58.75;98473.22;3600254;39;20047;-66
2021/06/17 04:22:52;;;;;;;13.95;9.70;;;;;;;21.36;58.91;98465.72;3599571;40;19939;-65
2021/06/17 04:25:22;;;;;;;11.02;8.98;;;;;;;21.43;58.36;98465.41;3599403;39;20048;-65
2021/06/17 04:27:55;;;;;;;9.77;8.60;;;;;;;21.24;59.04;98467.84;3599161;39;20421;-65
2021/06/17 04:30:25;;;;;;;9.77;8.68;;;;;;;21.25;58.83;98474.81;3599239;39;20082;-66
2021/06/17 04:32:56;;;;;;;11.18;8.35;;;;;;;21.21;59.04;98476.44;3599666;39;20044;-65
2021/06/17 04:35:26;;;;;;;9.70;7.32;;;;;;;21.24;58.77;98474.00;3599578;39;20043;-65
2021/06/17 04:37:54;;;;;;;9.88;8.88;;;;;;;21.41;58.38;98472.94;3599141;39;20063;-65
2021/06/17 04:40:23;;;;;;;9.98;8.70;;;;;;;21.26;58.72;98479.91;3599063;39;20329;-65
2021/06/17 04:42:54;;;;;;;12.18;9.68;;;;;;;21.29;58.65;98473.19;3598231;40;20048;-65
2021/06/17 04:45:23;;;;;;;14.40;9.82;;;;;;;21.39;58.83;98467.84;3599309;39;20079;-64
2021/06/17 04:47:52;;;;;;;14.30;9.40;;;;;;;21.45;58.16;98466.75;3599169;39;20083;-65
2021/06/17 04:50:23;;;;;;;10.40;8.38;;;;;;;21.41;58.20;98473.75;3599069;39;20051;-64
2021/06/17 04:53:09;;;;;;;9.30;8.40;;;;;;;21.45;58.25;98477.53;3599225;39;20043;-64
2021/06/17 04:55:42;;;;;;;10.98;9.57;;;;;;;21.54;57.93;98475.06;3599369;39;20051;-64
2021/06/17 04:58:10;;;;;;;9.68;8.65;;;;;;;21.65;57.96;98473.19;3599028;40;20062;-64
2021/06/17 05:00:38;;;;;;;9.82;8.45;;;;;;;21.63;57.72;98478.00;3598948;39;20111;-65
2021/06/17 05:03:06;;;;;;;9.63;8.63;;;;;;;21.72;57.44;98481.78;3598949;40;20341;-65
2021/06/17 05:05:35;;;;;;;10.00;8.02;;;;;;;21.67;57.67;98471.00;3598960;39;20047;-64
2021/06/17 05:10:52;;;;;;;9.70;8.77;;;;;;;21.86;57.83;98476.63;3598804;39;20352;-65
2021/06/17 05:13:22;;;;;;;9.73;8.75;;;;;;;21.95;57.25;98470.38;3598971;39;20044;-65
2021/06/17 05:15:52;;;;;;;11.55;8.90;;;;;;;22.00;56.78;98477.63;3599044;39;20048;-64
2021/06/17 05:18:22;;;;;;;10.25;8.35;;;;;;;22.12;56.77;98482.72;3598818;39;20092;-64
2021/06/17 05:20:52;;;;;;;8.70;7.85;;;;;;;22.14;56.71;98486.78;3598666;39;20051;-65
2021/06/17 05:23:22;;;;;;;10.15;8.68;;;;;;;22.32;56.08;98479.97;3598916;39;20051;-64
2021/06/17 05:25:50;;;;;;;9.10;8.27;;;;;;;22.35;55.57;98486.69;3598826;39;20321;-64
2021/06/17 05:28:21;;;;;;;11.15;9.20;;;;;;;22.36;55.50;98496.38;3598622;39;20040;-65
2021/06/17 05:30:49;;;;;;;8.32;7.53;;;;;;;22.42;55.59;98493.38;3598081;39;20048;-64
2021/06/17 05:33:18;;;;;;;10.13;8.40;;;;;;;22.61;55.19;98498.13;3598717;39;20075;-65
2021/06/17 05:35:47;;;;;;;10.90;9.18;;;;;;;22.67;54.81;98495.13;3599134;39;20051;-65
2021/06/17 05:38:17;;;;;;;13.25;10.55;;;;;;;22.66;54.78;98498.13;3598707;39;20052;-66
2021/06/17 05:40:46;;;;;;;20.90;18.85;;;;;;;22.63;54.80;98498.66;3598563;39;20056;-65
2021/06/17 05:43:15;;;;;;;14.25;12.55;;;;;;;22.64;54.63;98501.06;3597650;40;20044;-65
2021/06/17 05:45:43;;;;;;;9.15;8.35;;;;;;;22.72;55.19;98507.75;3598675;39;20063;-65
2021/06/17 05:48:11;;;;;;;16.58;8.50;;;;;;;22.77;54.33;98505.03;3598189;39;20052;-65
2021/06/17 05:50:39;;;;;;;9.65;8.60;;;;;;;22.73;54.19;98494.00;3598891;39;20040;-65
2021/06/17 05:53:08;;;;;;;8.85;8.05;;;;;;;22.81;54.33;98494.50;3598703;39;20063;-65
2021/06/17 05:55:37;;;;;;;10.90;7.93;;;;;;;22.82;53.46;98493.41;3598909;39;20051;-65
2021/06/17 05:58:05;;;;;;;15.00;9.50;;;;;;;22.94;53.16;98499.28;3598486;39;20043;-65
2021/06/17 06:00:33;;;;;;;11.55;7.85;;;;;;;23.07;52.94;98505.94;3598693;39;20044;-65
2021/06/17 06:03:01;;;;;;;9.45;7.82;;;;;;;23.21;52.57;98504.22;3598210;40;20052;-65
2021/06/17 06:05:29;;;;;;;8.95;8.10;;;;;;;23.31;52.13;98514.94;3599500;40;20059;-65
2021/06/17 06:07:58;;;;;;;12.90;8.88;;;;;;;23.41;51.69;98511.31;3602579;39;20048;-66
2021/06/17 06:10:26;;;;;;;10.88;9.02;;;;;;;23.44;51.39;98514.25;3601211;39;20078;-65
2021/06/17 06:12:56;;;;;;;12.23;8.45;;;;;;;23.42;51.50;98515.63;3602223;39;20136;-65
2021/06/17 06:15:27;;;;;;;9.93;8.05;;;;;;;23.54;51.57;98526.84;3602327;39;20048;-65
2021/06/17 06:17:54;;;;;;;7.65;6.78;;;;;;;23.67;51.33;98534.28;3602248;39;20044;-65
2021/06/17 06:20:23;;;;;;;9.90;8.88;;;;;;;23.83;50.68;98544.94;3601209;39;20145;-65
2021/06/17 06:22:51;;;;;;;8.60;7.80;;;;;;;23.92;50.35;98546.75;3601072;39;20415;-65
2021/06/17 06:25:18;;;;;;;8.98;7.28;;;;;;;23.95;50.43;98542.66;3603059;39;20048;-65
2021/06/17 06:27:46;;;;;;;10.73;8.52;;;;;;;24.03;50.81;98543.94;3602831;39;20088;-65
2021/06/17 06:30:17;;;;;;;10.15;7.70;;;;;;;24.06;51.14;98537.97;3603991;39;20105;-65
2021/06/17 06:32:45;;;;;;;10.80;8.75;;;;;;;24.08;50.63;98538.47;3602919;39;20044;-65
2021/06/17 06:35:13;;;;;;;10.90;7.75;;;;;;;24.13;50.96;98535.75;3602938;40;20052;-65
2021/06/17 06:37:48;;;;;;;10.38;9.07;;;;;;;24.30;50.88;98535.25;3603327;39;20054;-65
2021/06/17 06:40:16;;;;;;;10.68;8.35;;;;;;;24.25;50.62;98525.34;3604005;39;20060;-64
2021/06/17 06:42:48;;;;;;;9.07;8.18;;;;;;;24.30;50.64;98527.16;3604078;39;20044;-65
2021/06/17 06:45:17;;;;;;;10.52;7.32;;;;;;;24.40;50.42;98524.34;3603835;40;20055;-65
2021/06/17 06:47:45;;;;;;;10.43;7.63;;;;;;;24.55;50.11;98528.75;3601614;40;20051;-65
2021/06/17 06:50:13;;;;;;;9.65;7.40;;;;;;;24.76;49.83;98532.00;3603178;39;20097;-66
2021/06/17 06:52:42;;;;;;;7.82;7.13;;;;;;;24.89;49.33;98528.53;3602457;39;20140;-64
2021/06/17 06:55:10;;;;;;;7.20;6.47;;;;;;;25.08;48.85;98521.22;3600461;40;20051;-66
2021/06/17 06:57:38;;;;;;;8.30;6.03;;;;;;;25.28;48.45;98522.03;3599247;39;20047;-65
2021/06/17 07:00:08;;;;;;;7.07;6.38;;;;;;;25.54;47.57;98512.38;3601419;39;20052;-64
2021/06/17 07:02:38;;;;;;;7.03;5.45;;;;;;;25.70;46.72;98505.59;3601672;39;20062;-65
2021/06/17 07:05:07;;;;;;;6.88;4.50;;;;;;;25.90;46.00;98509.84;3602688;39;20087;-65
2021/06/17 07:07:35;;;;;;;7.85;5.47;;;;;;;26.14;45.63;98517.78;3600640;39;20294;-66
2021/06/17 07:10:04;;;;;;;5.57;4.63;;;;;;;26.39;44.55;98521.09;3600504;39;20323;-64
2021/06/17 07:12:32;;;;;;;5.43;4.80;;;;;;;26.57;43.90;98528.28;3600533;39;20048;-66
2021/06/17 07:15:00;;;;;;;5.65;5.15;;;;;;;26.73;43.52;98544.25;3600674;39;20379;-65
2021/06/17 07:17:28;;;;;;;8.88;4.97;;;;;;;26.87;43.75;98547.72;3599757;39;20055;-65
2021/06/17 07:19:57;;;;;;;10.40;4.82;;;;;;;27.03;43.62;98543.56;3599966;39;20051;-65
2021/06/17 07:22:26;;;;;;;10.07;5.63;;;;;;;27.12;44.02;98544.47;3599777;39;20054;-64
2021/06/17 07:24:54;;;;;;;7.03;6.30;;;;;;;27.24;44.06;98540.41;3598697;40;20044;-65
2021/06/17 07:27:22;;;;;;;9.10;6.15;;;;;;;27.34;43.78;98545.56;3599442;39;20048;-65
2021/06/17 07:29:51;;;;;;;8.75;6.10;;;;;;;27.44;43.77;98548.03;3599798;39;20312;-64
2021/06/17 07:32:20;;;;;;;6.78;6.20;;;;;;;27.56;44.15;98547.47;3600104;39;20055;-65
2021/06/17 07:34:47;;;;;;;6.95;6.25;;;;;;;27.67;43.36;98543.38;3599889;39;20048;-65
2021/06/17 07:37:17;;;;;;;8.20;6.25;;;;;;;27.71;43.47;98538.91;3599428;39;20079;-65
2021/06/17 07:39:45;;;;;;;7.32;6.57;;;;;;;27.72;43.68;98540.53;3599696;39;20068;-65
2021/06/17 07:42:13;;;;;;;10.10;6.65;;;;;;;27.75;43.69;98528.28;3601445;39;20046;-65
2021/06/17 07:44:41;;;;;;;7.97;6.70;;;;;;;27.83;43.90;98541.09;3603339;39;20088;-64
2021/06/17 07:47:09;;;;;;;9.65;6.55;;;;;;;27.85;43.84;98544.31;3602565;39;20108;-64
2021/06/17 07:49:36;;;;;;;7.15;6.25;;;;;;;27.92;43.38;98547.34;3601574;39;20072;-68
2021/06/17 07:52:05;;;;;;;8.02;7.18;;;;;;;27.99;43.55;98534.13;3600223;39;20044;-64
2021/06/17 07:54:34;;;;;;;7.70;6.78;;;;;;;28.01;43.22;98531.91;3600560;39;20059;-63
2021/06/17 07:57:02;;;;;;;10.40;6.80;;;;;;;28.16;43.33;98533.38;3599383;39;20055;-63
2021/06/17 07:59:29;;;;;;;6.95;6.32;;;;;;;28.23;42.75;98541.09;3599933;39;20080;-63
2021/06/17 08:01:57;;;;;;;7.90;7.10;;;;;;;28.31;43.12;98546.56;3599571;39;20431;-62
2021/06/17 08:04:27;;;;;;;7.20;6.50;;;;;;;28.32;42.63;98544.63;3599507;39;20044;-63
2021/06/17 08:06:55;;;;;;;7.68;6.88;;;;;;;28.38;42.72;98543.41;3598950;39;20044;-63
2021/06/17 08:09:23;;;;;;;10.20;7.80;;;;;;;28.44;42.34;98544.06;3597951;39;20072;-63
2021/06/17 08:11:53;;;;;;;6.53;5.93;;;;;;;28.51;42.48;98542.47;3599284;39;20052;-65
2021/06/17 08:14:25;;;;;;;7.20;6.53;;;;;;;28.54;42.46;98541.06;3599428;39;20055;-65
2021/06/17 08:16:54;;;;;;;7.78;6.85;;;;;;;28.55;42.76;98531.78;3599430;39;20048;-65
2021/06/17 08:19:27;;;;;;;8.13;7.03;;;;;;;28.61;42.55;98539.44;3599794;39;20059;-64
2021/06/17 08:21:56;;;;;;;7.35;6.68;;;;;;;28.72;42.11;98541.88;3599102;39;20059;-64
2021/06/17 08:24:24;;;;;;;8.55;7.60;;;;;;;28.82;41.94;98547.00;3598647;40;20091;-65
2021/06/17 08:26:53;;;;;;;10.52;8.07;;;;;;;28.77;42.00;98531.63;3601964;39;20058;-64
2021/06/17 08:29:22;;;;;;;7.35;6.65;;;;;;;28.86;42.28;98531.63;3602013;39;20084;-64
2021/06/17 08:31:50;;;;;;;7.60;6.90;;;;;;;28.98;41.52;98533.75;3600747;39;20051;-64
2021/06/17 08:34:18;;;;;;;7.55;6.85;;;;;;;29.07;41.29;98534.56;3600350;39;20048;-65
2021/06/17 08:36:45;;;;;;;6.97;6.40;;;;;;;29.06;41.64;98525.56;3598428;40;20055;-64
2021/06/17 08:39:13;;;;;;;7.95;7.25;;;;;;;29.19;41.92;98523.84;3599063;39;20048;-64
2021/06/17 08:41:41;;;;;;;8.05;6.88;;;;;;;29.30;41.65;98529.72;3599419;39;20396;-65
2021/06/17 08:44:10;;;;;;;9.25;6.93;;;;;;;29.39;41.13;98522.34;3599138;39;20055;-65
2021/06/17 08:46:38;;;;;;;8.45;7.00;;;;;;;29.44;41.00;98532.28;3599441;39;20389;-64
2021/06/17 08:49:08;;;;;;;8.35;7.03;;;;;;;29.49;41.54;98527.47;3600779;39;20389;-65
2021/06/17 08:51:39;;;;;;;9.02;6.75;;;;;;;29.55;41.35;98528.06;3600408;40;20063;-64
2021/06/17 08:54:08;;;;;;;9.38;7.30;;;;;;;29.69;41.06;98527.94;3602662;40;20050;-64
2021/06/17 08:56:36;;;;;;;8.45;7.65;;;;;;;29.80;40.29;98523.69;3599692;39;20047;-64
2021/06/17 08:59:06;;;;;;;7.45;6.70;;;;;;;29.73;40.33;98535.13;3598702;39;20044;-65
2021/06/17 09:01:36;;;;;;;7.45;6.75;;;;;;;29.83;40.70;98523.84;3599142;39;20043;-64
2021/06/17 09:04:19;;;;;;;7.70;7.00;;;;;;;30.00;40.74;98535.81;3599017;39;20044;-64
2021/06/17 09:07:03;;;;;;;7.47;6.85;;;;;;;30.11;40.40;98531.59;3598835;39;20044;-64
2021/06/17 09:09:33;;;;;;;8.73;6.75;;;;;;;30.10;39.53;98530.81;3598786;39;20043;-65
2021/06/17 09:12:01;;;;;;;7.40;6.70;;;;;;;30.19;39.55;98540.91;3598657;39;20055;-65
2021/06/17 09:14:29;;;;;;;8.45;7.60;;;;;;;30.28;39.57;98544.38;3598876;39;20048;-64
2021/06/17 09:17:00;;;;;;;8.57;7.78;;;;;;;30.38;39.17;98535.03;3598524;39;20353;-65
2021/06/17 09:19:44;;;;;;;9.53;7.43;;;;;;;30.42;38.53;98536.75;3598762;39;20072;-64
2021/06/17 09:22:15;;;;;;;7.75;6.80;;;;;;;30.42;38.79;98528.59;3595973;39;20286;-65
2021/06/17 09:24:44;;;;;;;8.70;7.90;;;;;;;30.41;38.86;98526.16;3598745;39;20048;-66
2021/06/17 09:27:23;;;;;;;8.68;7.53;;;;;;;30.56;38.74;98515.47;3598513;39;20054;-64
2021/06/17 09:29:53;;;;;;;7.53;6.82;;;;;;;30.65;38.53;98514.63;3598804;39;20048;-64
2021/06/17 09:32:23;;;;;;;7.55;6.85;;;;;;;30.71;38.37;98516.84;3598722;39;20075;-65
2021/06/17 09:34:52;;;;;;;7.63;6.60;;;;;;;30.76;38.01;98513.94;3598802;39;20048;-64
2021/06/17 09:37:34;;;;;;;7.53;6.90;;;;;;;30.77;38.39;98518.25;3598745;39;20052;-65
2021/06/17 09:40:26;;;;;;;8.23;7.50;;;;;;;30.78;38.45;98510.84;3598679;39;20294;-65
2021/06/17 09:43:13;;;;;;;9.88;7.30;;;;;;;30.83;37.86;98507.94;3597641;40;20298;-65
2021/06/17 09:45:41;;;;;;;8.18;7.35;;;;;;;31.07;37.99;98505.34;3598624;39;20051;-64
2021/06/17 09:48:30;;;;;;;9.25;8.35;;;;;;;31.11;37.93;98501.91;3598440;39;20125;-66
2021/06/17 09:50:58;;;;;;;8.80;7.82;;;;;;;31.05;38.38;98499.41;3597583;40;20067;-64
2021/06/17 09:53:27;;;;;;;8.73;7.55;;;;;;;31.09;38.19;98504.97;3598649;39;20298;-64
2021/06/17 09:55:54;;;;;;;8.07;7.38;;;;;;;31.31;38.00;98498.38;3598732;39;20417;-64
2021/06/17 09:58:37;;;;;;;7.80;7.13;;;;;;;31.49;37.22;98493.53;3598632;39;20056;-65
2021/06/17 10:01:11;;;;;;;8.63;7.82;;;;;;;31.56;36.32;98497.31;3599229;39;20048;-67
2021/06/17 10:03:41;;;;;;;8.27;7.30;;;;;;;31.58;36.88;98491.50;3598555;39;20140;-64
2021/06/17 10:06:19;;;;;;;9.65;7.22;;;;;;;31.49;36.22;98490.81;3598518;40;20051;-64
2021/06/17 10:08:47;;;;;;;8.40;7.38;;;;;;;31.43;37.18;98482.03;3598018;39;20055;-65
2021/06/17 10:11:15;;;;;;;8.55;7.85;;;;;;;31.60;36.46;98488.41;3598254;39;20043;-64
2021/06/17 10:13:43;;;;;;;9.35;7.63;;;;;;;31.71;35.53;98486.84;3598366;39;20059;-64
2021/06/17 10:16:16;;;;;;;8.55;7.60;;;;;;;31.80;35.73;98487.53;3598514;39;20431;-64
2021/06/17 10:18:46;;;;;;;7.80;7.10;;;;;;;31.88;34.12;98494.84;3597957;39;20133;-65
2021/06/17 10:21:17;;;;;;;9.10;6.50;;;;;;;31.92;33.82;98490.31;3598198;39;20040;-65
2021/06/17 10:23:50;;;;;;;7.88;7.18;;;;;;;32.09;34.00;98491.22;3598248;39;20102;-65
2021/06/17 10:26:20;;;;;;;8.40;7.63;;;;;;;32.14;34.30;98493.75;3598254;39;20047;-66
2021/06/17 10:28:50;;;;;;;8.15;7.45;;;;;;;32.15;34.34;98485.19;3598130;39;20061;-65
2021/06/17 10:31:50;;;;;;;8.63;7.82;;;;;;;32.34;34.17;98486.56;3598338;39;20419;-65
2021/06/17 10:34:36;;;;;;;10.07;8.27;;;;;;;32.51;34.36;98489.06;3567695;40;20314;-65
2021/06/17 10:37:15;;;;;;;9.13;7.63;;;;;;;32.59;33.01;98490.84;3597074;39;20039;-63
2021/06/17 10:39:44;;;;;;;7.50;6.80;;;;;;;32.63;32.91;98486.28;3599671;39;20316;-65
2021/06/17 10:42:31;;;;;;;7.53;6.90;;;;;;;32.68;33.24;98483.28;3599730;39;20048;-65
2021/06/17 10:45:00;;;;;;;8.00;7.30;;;;;;;32.70;32.89;98478.28;3599634;39;20056;-64
2021/06/17 10:48:07;;;;;;;7.53;6.93;;;;;;;32.68;33.55;98490.72;3599353;39;20051;-65
2021/06/17 10:51:09;;;;;;;7.38;6.78;;;;;;;32.57;33.52;98493.13;3598580;39;20051;-66
2021/06/17 10:53:46;;;;;;;8.48;7.43;;;;;;;32.64;33.29;98489.81;3593704;39;20039;-65
2021/06/17 10:56:20;;;;;;;9.95;8.80;;;;;;;32.66;33.31;98490.25;3599618;39;20155;-64
2021/06/17 10:58:55;;;;;;;8.05;7.35;;;;;;;32.74;33.34;98486.56;3599226;39;20036;-64
2021/06/17 11:01:26;;;;;;;8.02;7.22;;;;;;;32.65;33.70;98480.44;3598596;40;20052;-64
2021/06/17 11:04:18;;;;;;;9.27;7.50;;;;;;;32.62;34.21;98486.59;3599562;39;20406;-64
2021/06/17 11:07:20;;;;;;;9.20;7.27;;;;;;;32.73;33.89;98493.19;3598059;39;20055;-65
2021/06/17 11:10:00;;;;;;;8.55;7.70;;;;;;;32.63;34.41;98496.44;3599618;39;20110;-64
2021/06/17 11:12:52;;;;;;;8.40;7.65;;;;;;;32.40;35.19;98498.88;3598365;40;20398;-64
2021/06/17 11:15:41;;;;;;;10.40;7.95;;;;;;;32.22;35.65;98495.56;3599515;39;20110;-64
2021/06/17 11:18:09;;;;;;;10.02;7.88;;;;;;;32.31;36.19;98507.16;3599478;39;20040;-64
2021/06/17 11:20:40;;;;;;;8.75;7.55;;;;;;;32.35;36.13;98502.59;3599448;39;20321;-64
2021/06/17 11:23:09;;;;;;;8.35;7.68;;;;;;;32.41;36.18;98506.72;3598654;40;20063;-63
2021/06/17 11:25:45;;;;;;;8.50;7.60;;;;;;;32.41;35.56;98500.44;3599471;39;20062;-67
2021/06/17 11:28:19;;;;;;;7.75;7.15;;;;;;;32.54;35.26;98505.56;3599806;39;20101;-65
2021/06/17 11:30:57;;;;;;;14.70;7.32;;;;;;;32.60;34.38;98508.84;3599548;39;20084;-64
2021/06/17 11:33:47;;;;;;;9.23;7.78;;;;;;;32.76;34.74;98508.94;3599953;39;20056;-64
2021/06/17 11:36:17;;;;;;;7.68;6.75;;;;;;;32.73;34.38;98506.88;3600033;39;20059;-64
2021/06/17 11:38:49;;;;;;;7.70;7.00;;;;;;;32.62;33.71;98500.28;3599628;39;20063;-64
2021/06/17 11:41:37;;;;;;;7.85;7.10;;;;;;;32.58;32.72;98502.94;3599657;39;20040;-63
2021/06/17 11:44:06;;;;;;;6.90;6.30;;;;;;;32.78;33.11;98503.91;3599084;39;20039;-65
2021/06/17 11:46:38;;;;;;;7.10;6.50;;;;;;;32.95;32.72;98514.63;3599526;39;20449;-65
2021/06/17 11:49:30;;;;;;;10.00;7.65;;;;;;;33.03;31.15;98510.94;3599346;39;20402;-63
2021/06/17 11:51:59;;;;;;;13.07;7.63;;;;;;;33.03;31.43;98499.97;3599500;39;20083;-66
2021/06/17 11:54:28;;;;;;;7.65;6.95;;;;;;;33.01;31.44;98512.41;3598274;40;20298;-64